Valladolid

latitud = 41° 39' 8''N | longitud = 004° 43' 24''W
690 metros sobre el nivel del mar | datos mensuales

Fecha, hora, temperatura, viento dirección y velocidad, humedad y presión.

  • 21-06-2018 22:00:00 | 24.50°C | Nordeste |5.00 km/h | 68.00% | 933.40 hPa
  • 21-06-2018 21:00:00 | 26.10°C | Norte |5.00 km/h | 52.00% | 933.00 hPa
  • 21-06-2018 20:00:00 | 28.10°C | Nordeste |8.00 km/h | 46.00% | 932.80 hPa
  • 21-06-2018 19:00:00 | 27.30°C | Norte |3.00 km/h | 52.00% | 933.20 hPa
  • 21-06-2018 18:00:00 | 27.90°C | Norte |5.00 km/h | 47.00% | 933.40 hPa
  • 21-06-2018 17:00:00 | 29.50°C | Norte |6.00 km/h | 42.00% | 933.30 hPa
  • 21-06-2018 16:00:00 | 28.80°C | Norte |6.00 km/h | 47.00% | 933.60 hPa
  • 21-06-2018 15:00:00 | 27.50°C | Norte |4.00 km/h | 54.00% | 934.20 hPa
  • 21-06-2018 14:00:00 | 24.30°C | Nordeste |4.00 km/h | 66.00% | 934.70 hPa
  • 21-06-2018 13:00:00 | 23.00°C | Norte |4.00 km/h | 72.00% | 935.10 hPa
  • 21-06-2018 12:00:00 | 23.20°C | Norte |4.00 km/h | 69.00% | 934.90 hPa
  • 21-06-2018 11:00:00 | 21.30°C | Norte |5.00 km/h | 77.00% | 934.60 hPa
  • 21-06-2018 10:00:00 | 21.40°C | Nordeste |3.00 km/h | 72.00% | 934.50 hPa
  • 21-06-2018 09:00:00 | 20.30°C | Este |5.00 km/h | 74.00% | 934.30 hPa
  • 21-06-2018 08:00:00 | 17.50°C | Sur |3.00 km/h | 92.00% | 934.10 hPa
  • 21-06-2018 07:00:00 | 17.40°C | Noroeste |3.00 km/h | 91.00% | 934.10 hPa
  • 21-06-2018 06:00:00 | 17.60°C | Nordeste |4.00 km/h | 90.00% | 934.20 hPa
  • 21-06-2018 05:00:00 | 18.50°C | Nordeste |3.00 km/h | 86.00% | 934.30 hPa
  • 21-06-2018 04:00:00 | 18.20°C | Norte |4.00 km/h | 86.00% | 934.20 hPa
  • 21-06-2018 03:00:00 | 18.30°C | Noroeste |8.00 km/h | 86.00% | 934.50 hPa
  • 21-06-2018 02:00:00 | 19.00°C | Noroeste |9.00 km/h | 90.00% | 934.30 hPa
  • 21-06-2018 01:00:00 | 19.70°C | Oeste |14.00 km/h | 84.00% | 933.50 hPa
  • 21-06-2018 00:00:00 | 25.30°C | Sudoeste |10.00 km/h | 52.00% | 933.90 hPa
  • 20-06-2018 23:00:00 | 25.30°C | Nordeste |2.00 km/h | 48.00% | 933.00 hPa